Jazz DH8D at Calgary on Mar 20th 2015, runway excursion on touch down

Last Update: March 24, 2015 / 22:34:27 GMT/Zulu time

Bookmark this article
Incident Facts

Date of incident
Mar 20, 2015

Classification
Incident

Flight number
QK-8374

Destination
Calgary, Canada

Aircraft Registration
C-GGOF

ICAO Type Designator
DH8D

Airport ICAO Code
CYYC

A Jazz de Havilland Dash 8-400, registration C-GGOF performing flight QK-8374 from Fort McMurray,AB to Calgary,AB (Canada), landed on Calgary's runway 17R at 21:18L (03:18Z Mar 21st) but struck a right hand runway edge light at touch down. The aircraft returned onto the runway center line and rolled out without further incident.

The Canadian TSB reported maintenance found minor damage to the right hand main gear structure and right hand nacelle.

Metars:
CYYC 210600Z 14010KT 1/4SM R17R/2600FT/N R17L/2200FT/N R29/2000FT/N -FZDZ FZFG VV002 M00/M01 A2990 RMK FG8 GLAZE SLP170
CYYC 210500Z 16009KT 1/2SM R17R/2800FT/N R17L/2600FT/N R29/2200FT/N -FZDZ BR VV002 M00/M01 A2993 RMK DZ8 GLAZE SLP180
CYYC 210414Z 15010KT 3/8SM R17R/2200FT/N R17L/2200FT/N R29/1800FT/N -FZDZ BR VV002 M00/M01 A2993 RMK DZ8 SLP181
CYYC 210400Z 15010KT 1/4SM R17R/1600FT/N R17L/2000FT/N R29/1400FT/N -FZDZ FZFG VV002 M00/M01 A2993 RMK FG8 SLP182
CYYC 210355Z 15010KT 1/4SM R17R/1600FT/N R17L/2000FT/N R29/1400FT/N -FZDZ FZFG VV003 M00/M01 A2993 RMK FG8 SLP182
CYYC 210300Z 15012KT 1/4SM R17R/1200V1800FT/N R17L/1800FT/N R29/1200FT/N FZFG VV002 M00/M01 A2993 RMK FG8 SLP182
CYYC 210230Z 14010G15KT 1/4SM R17R/2000FT/N R17L/1800FT/N R29/1600FT/N FZFG VV002 M00/M01 A2994 RMK FG8 SLP188
CYYC 210200Z 13010KT 1/2SM R17R/2800V4000FT/U R17L/2600FT/N R29/2400FT/U FZFG VV003 M00/M01 A2994 RMK FG8 VIS VRB 3/8-5/8/ CIG VRB 1-5 SLP187
CYYC 210111Z 13010KT 1/2SM R17R/P6000FT/U R17L/2200V3500FT/U R29/5000VP6000FT/DFZFG VV002 M00/M01 A2995 RMK FG8 VIS VRB 3/8-5/8 SLP190
CYYC 210100Z 14008KT 3/8SM R17R/4500VP6000FT/U R17L/1800FT/N R29/3000V5000FT/U FZFG VV001 M00/M01 A2995 RMK FG8 VIS VRB 1/4-1/2 SLP190
CYYC 210044Z 14008G15KT 1/2SM R17R/5000VP6000FT/D R17L/2400FT/N R29/4000VP6000FT/D FZFG OVC001 M00/M01 A2995 RMK FG1ST7 SLP189
CYYC 210020Z 14009KT 1 1/4SM BR OVC003 M00/M01 A2995 RMK ST8 SLP189
CYYC 210000Z 14011KT 2SM BR OVC004 M00/M01 A2996 RMK ST8 SLP192
Aircraft Registration Data
Registration mark
C-GGOF
Country of Registration
Canada
Date of Registration
DbjpnhgkmghgAdm Subscribe to unlock
Certification Basis
dpfheiecAdjnpffhAdAhcAfmhmejheAbdbdlhc gdbdml Subscribe to unlock
TCDS Ident. No.
Manufacturer
Dehavilland
Aircraft Model / Type
DHC-8-402
ICAO Aircraft Type
DH8D
Year of Manufacture
Serial Number
Aircraft Address / Mode S Code (HEX)
Maximum Take off Mass (MTOM) [kg]
Engine Count
Engine Type
Main Owner
DgAlghcjflhkfAlpckdecdledjkfcmlbdhklkdpmijdh qglije kjmhnhpchedljejAnAk liqfkmbfejmdl chfceiqlgghmf pcgqknpnjjneb Subscribe to unlock

Aircraft registration data reproduced and distributed with the permission of the Government of Canada.

Incident Facts

Date of incident
Mar 20, 2015

Classification
Incident

Flight number
QK-8374

Destination
Calgary, Canada

Aircraft Registration
C-GGOF

ICAO Type Designator
DH8D

Airport ICAO Code
CYYC

This article is published under license from Avherald.com. © of text by Avherald.com.
Article source

You can read 2 more free articles without a subscription.

Subscribe now and continue reading without any limits!

Are you a subscriber? Login
Subscribe

Read unlimited articles and receive our daily update briefing. Gain better insights into what is happening in commercial aviation safety.

Free newsletter

Want to know more and stay ahead? Get our free weekly newsletter and join 5599 existing subscribers.

By subscribing, you accept our terms and conditions and confirm that you've read our privacy policy.

Send tip

Support AeroInside by sending a small tip amount.

Related articles

Newest articles

Subscribe today

Are you researching aviation incidents? Get access to AeroInside Insights, unlimited read access and receive the daily newsletter.

Pick your plan and subscribe

Partner

Blockaviation logo

A new way to document and demonstrate airworthiness compliance and aircraft value. Find out more.

Virtual Speech logo

ELITE Simulation Solutions is a leading global provider of Flight Simulation Training Devices, IFR training software as well as flight controls and related services. Find out more.

Get updates

Never miss an article from AeroInside. Subscribe to our free weekly newsletter and join 5599 existing subscribers.

By subscribing, you accept our terms and conditions and that you've read our privacy policy.

AeroInside Blog
Popular aircraft
Airbus A320
Boeing 737-800
Boeing 737-800 MAX
Popular airlines
American Airlines
United
Delta
Air Canada
Lufthansa
British Airways